Time;durP1;ratioP1;P1;durP2;ratioP2;P2;SDS_P1;SDS_P2;PMS_P1;PMS_P2;Temp;Humidity;BMP_temperature;BMP_pressure;BME280_temperature;BME280_humidity;BME280_pressure;Samples;Min_cycle;Max_cycle;Signal;HPM_P1;HPM_P2
2020/12/20 00:01:38;;;;;;;7.43;4.53;;;9.70;95.00;;;;;;4993816;28;20038;-66
2020/12/20 00:04:03;;;;;;;8.75;4.63;;;9.70;95.30;;;;;;4995702;28;20037;-65
2020/12/20 00:06:36;;;;;;;6.93;4.20;;;9.60;95.10;;;;;;4995350;28;20030;-67
2020/12/20 00:09:08;;;;;;;10.93;4.78;;;9.60;95.10;;;;;;4995211;28;20026;-66
2020/12/20 00:11:38;;;;;;;7.25;4.30;;;9.70;95.40;;;;;;4997053;28;20059;-66
2020/12/20 00:14:26;;;;;;;9.77;5.10;;;9.60;95.10;;;;;;4995271;28;20134;-67
2020/12/20 00:16:49;;;;;;;7.13;4.30;;;9.70;95.00;;;;;;4995157;28;20049;-65
2020/12/20 00:19:15;;;;;;;8.85;4.63;;;9.70;95.00;;;;;;4995064;28;20121;-67
2020/12/20 00:21:41;;;;;;;9.02;4.32;;;9.60;95.10;;;;;;4993704;28;20053;-67
2020/12/20 00:24:10;;;;;;;8.23;4.47;;;9.60;95.00;;;;;;4994956;28;20372;-68
2020/12/20 00:26:36;;;;;;;7.53;4.43;;;9.60;95.10;;;;;;4996454;28;20022;-66
2020/12/20 00:29:03;;;;;;;7.43;4.60;;;9.50;95.10;;;;;;4994945;28;20038;-67
2020/12/20 00:31:29;;;;;;;7.90;4.93;;;9.60;95.20;;;;;;4989621;28;20049;-66
2020/12/20 00:33:54;;;;;;;7.00;4.38;;;9.60;95.10;;;;;;4994548;28;20038;-68
2020/12/20 00:36:20;;;;;;;6.85;4.10;;;9.60;95.00;;;;;;4993909;28;20030;-65
2020/12/20 00:38:46;;;;;;;6.72;4.65;;;9.50;95.10;;;;;;4996268;28;20038;-66
2020/12/20 00:41:11;;;;;;;9.38;4.90;;;9.50;95.00;;;;;;4993748;28;20058;-67
2020/12/20 00:43:37;;;;;;;7.68;4.80;;;9.60;95.10;;;;;;4994769;28;20030;-67
2020/12/20 00:46:02;;;;;;;8.02;4.97;;;9.50;95.00;;;;;;4994796;28;20045;-68
2020/12/20 00:48:28;;;;;;;9.35;4.78;;;9.50;95.10;;;;;;4993558;28;20121;-66
2020/12/20 00:50:54;;;;;;;6.63;4.60;;;9.50;95.10;;;;;;4996054;28;20058;-67
2020/12/20 00:53:19;;;;;;;11.68;4.55;;;9.50;95.00;;;;;;4993980;28;20034;-67
2020/12/20 00:55:48;;;;;;;6.63;4.10;;;9.50;95.00;;;;;;4994345;28;20054;-67
2020/12/20 00:58:14;;;;;;;8.18;4.55;;;9.50;95.00;;;;;;4994220;28;20137;-67
2020/12/20 01:00:41;;;;;;;7.78;4.63;;;9.50;95.10;;;;;;4993295;28;20077;-67
2020/12/20 01:03:06;;;;;;;7.85;4.22;;;9.40;95.10;;;;;;4993274;28;20034;-66
2020/12/20 01:05:32;;;;;;;6.65;4.07;;;9.40;95.10;;;;;;4994709;28;20420;-66
2020/12/20 01:07:57;;;;;;;7.90;4.40;;;9.50;95.10;;;;;;4994539;28;20070;-66
2020/12/20 01:10:23;;;;;;;9.50;4.80;;;9.40;95.10;;;;;;4994178;28;20049;-68
2020/12/20 01:12:49;;;;;;;9.35;4.57;;;9.50;95.20;;;;;;4992264;28;20053;-66
2020/12/20 01:15:14;;;;;;;10.82;4.68;;;9.50;95.20;;;;;;4994062;28;20096;-67
2020/12/20 01:17:40;;;;;;;7.40;4.57;;;9.50;95.10;;;;;;4995563;28;20022;-67
2020/12/20 01:20:06;;;;;;;7.78;4.63;;;9.50;95.10;;;;;;4994125;28;20061;-67
2020/12/20 01:22:32;;;;;;;7.90;4.28;;;9.50;95.10;;;;;;4993592;28;20466;-67
2020/12/20 01:24:57;;;;;;;7.53;4.53;;;9.50;95.20;;;;;;4993658;28;20460;-66
2020/12/20 01:27:23;;;;;;;6.80;4.00;;;9.50;95.20;;;;;;4993673;28;20053;-68
2020/12/20 01:29:49;;;;;;;7.55;4.72;;;9.50;95.20;;;;;;4994296;28;20030;-68
2020/12/20 01:32:17;;;;;;;6.75;4.32;;;9.60;95.20;;;;;;4993485;28;20452;-68
2020/12/20 01:34:45;;;;;;;8.05;4.35;;;9.50;95.00;;;;;;4992506;28;20093;-67
2020/12/20 01:37:11;;;;;;;6.55;4.40;;;9.50;95.00;;;;;;4993634;28;20031;-66
2020/12/20 01:39:37;;;;;;;9.85;4.90;;;9.50;95.00;;;;;;4993842;28;20042;-67
2020/12/20 01:42:03;;;;;;;7.15;4.80;;;9.50;95.10;;;;;;4993511;28;20038;-66
2020/12/20 01:44:29;;;;;;;8.52;4.60;;;9.60;95.10;;;;;;4994023;28;20032;-65
2020/12/20 01:46:56;;;;;;;6.85;4.30;;;9.50;94.90;;;;;;4991734;28;20193;-66
2020/12/20 01:49:22;;;;;;;7.72;4.32;;;9.40;95.00;;;;;;4993501;28;20039;-66
2020/12/20 01:51:49;;;;;;;8.18;5.22;;;9.50;95.00;;;;;;4993078;28;20443;-67
2020/12/20 01:54:15;;;;;;;7.63;4.80;;;9.60;95.00;;;;;;4993355;28;20058;-68
2020/12/20 01:56:41;;;;;;;7.30;4.40;;;9.50;95.00;;;;;;4994992;28;20034;-68
2020/12/20 01:59:07;;;;;;;10.63;4.72;;;9.50;95.10;;;;;;4992855;28;20049;-66
2020/12/20 02:01:32;;;;;;;6.53;4.13;;;9.40;95.00;;;;;;4992535;28;20531;-66
2020/12/20 02:03:58;;;;;;;9.00;4.57;;;9.50;95.00;;;;;;4992115;28;20046;-66
2020/12/20 02:06:24;;;;;;;8.95;4.82;;;9.60;95.00;;;;;;4993653;28;20042;-67
2020/12/20 02:08:49;;;;;;;8.10;4.97;;;9.50;95.00;;;;;;4994535;28;20564;-67
2020/12/20 02:11:16;;;;;;;7.43;4.45;;;9.50;95.10;;;;;;4993119;28;20081;-67
2020/12/20 02:13:49;;;;;;;7.88;5.05;;;9.50;95.10;;;;;;4993116;28;20049;-68
2020/12/20 02:16:16;;;;;;;9.70;4.38;;;9.50;95.10;;;;;;4993180;28;20091;-68
2020/12/20 02:18:42;;;;;;;9.95;5.07;;;9.50;95.10;;;;;;4993060;28;20062;-66
2020/12/20 02:21:21;;;;;;;7.70;4.40;;;9.50;95.10;;;;;;4992330;28;20089;-65
2020/12/20 02:23:48;;;;;;;8.82;4.55;;;9.50;95.00;;;;;;4994088;28;20117;-67
2020/12/20 02:26:15;;;;;;;8.90;4.72;;;9.50;94.90;;;;;;4992715;28;20068;-66
2020/12/20 02:28:41;;;;;;;9.43;5.10;;;9.50;94.90;;;;;;4992889;28;20400;-67
2020/12/20 02:31:07;;;;;;;7.47;4.97;;;9.50;94.90;;;;;;4991740;28;20053;-66
2020/12/20 02:33:33;;;;;;;8.82;5.35;;;9.50;95.00;;;;;;4992488;28;20548;-66
2020/12/20 02:35:59;;;;;;;10.25;5.13;;;9.50;95.00;;;;;;4993102;28;20165;-66
2020/12/20 02:38:26;;;;;;;12.23;5.25;;;9.60;95.00;;;;;;4992847;28;20121;-69
2020/12/20 02:40:52;;;;;;;8.82;4.90;;;9.60;95.00;;;;;;4991648;28;20045;-66
2020/12/20 02:43:18;;;;;;;7.97;5.30;;;9.50;95.00;;;;;;4992780;28;20034;-67
2020/12/20 02:45:44;;;;;;;9.32;5.78;;;9.50;95.10;;;;;;4992979;28;20046;-66
2020/12/20 02:48:10;;;;;;;8.48;5.22;;;9.50;95.10;;;;;;4992178;28;20036;-68
2020/12/20 02:50:36;;;;;;;10.27;5.47;;;9.50;95.10;;;;;;4993912;28;20037;-66
2020/12/20 02:53:02;;;;;;;7.82;5.20;;;9.50;95.10;;;;;;4992354;28;20468;-66
2020/12/20 02:55:28;;;;;;;13.10;5.55;;;9.50;95.10;;;;;;4992065;28;20380;-68
2020/12/20 02:57:53;;;;;;;9.05;5.45;;;9.40;95.10;;;;;;4992216;28;20034;-67
2020/12/20 03:00:20;;;;;;;8.35;4.78;;;9.40;95.10;;;;;;4992681;28;20039;-66
2020/12/20 03:02:46;;;;;;;6.90;4.78;;;9.50;95.10;;;;;;4993634;28;20038;-66
2020/12/20 03:05:13;;;;;;;8.00;4.80;;;9.40;95.10;;;;;;4992366;28;20038;-67
2020/12/20 03:07:39;;;;;;;7.72;4.22;;;9.40;95.20;;;;;;4991871;28;20077;-67
2020/12/20 03:10:05;;;;;;;7.57;5.15;;;9.40;95.20;;;;;;4991920;28;20060;-66
2020/12/20 03:12:31;;;;;;;9.05;5.43;;;9.40;95.20;;;;;;4992134;28;20077;-68
2020/12/20 03:14:56;;;;;;;8.90;5.63;;;9.40;95.30;;;;;;4993704;28;20062;-66
2020/12/20 03:17:22;;;;;;;8.95;4.90;;;9.50;95.30;;;;;;4992268;28;20445;-67
2020/12/20 03:19:48;;;;;;;10.52;5.05;;;9.50;95.30;;;;;;4992452;28;20088;-65
2020/12/20 03:22:17;;;;;;;13.00;5.00;;;9.50;95.40;;;;;;4992002;28;20121;-67
2020/12/20 03:24:42;;;;;;;8.05;5.13;;;9.50;95.40;;;;;;4992015;28;20371;-66
2020/12/20 03:27:08;;;;;;;12.02;5.07;;;9.40;95.40;;;;;;4992504;28;20449;-66
2020/12/20 03:29:34;;;;;;;10.00;5.22;;;9.30;95.50;;;;;;4993703;28;20041;-65
2020/12/20 03:31:59;;;;;;;9.52;6.00;;;9.40;95.60;;;;;;4991109;28;20041;-66
2020/12/20 03:34:25;;;;;;;7.00;5.20;;;9.40;95.60;;;;;;4990970;28;20475;-66
2020/12/20 03:36:51;;;;;;;9.52;6.13;;;9.40;95.70;;;;;;4994562;28;20108;-66
2020/12/20 03:39:17;;;;;;;8.95;5.70;;;9.40;95.70;;;;;;4995767;28;20487;-66
2020/12/20 03:41:42;;;;;;;10.82;6.63;;;9.40;95.80;;;;;;4997352;28;20034;-66
2020/12/20 03:44:08;;;;;;;9.07;5.88;;;9.40;95.90;;;;;;4995712;28;20031;-66
2020/12/20 03:46:34;;;;;;;12.60;5.97;;;9.30;95.90;;;;;;4995661;28;20061;-68
2020/12/20 03:49:00;;;;;;;10.32;6.45;;;9.40;96.10;;;;;;4995707;28;20406;-66
2020/12/20 03:51:25;;;;;;;10.55;6.22;;;9.30;96.10;;;;;;4995888;28;20030;-66
2020/12/20 03:53:51;;;;;;;9.50;5.97;;;9.30;96.20;;;;;;4995874;28;20109;-67
2020/12/20 03:56:17;;;;;;;9.70;6.47;;;9.30;96.30;;;;;;4995557;28;20069;-66
2020/12/20 03:58:42;;;;;;;8.63;5.75;;;9.30;96.30;;;;;;4995440;28;20096;-66
2020/12/20 04:01:08;;;;;;;14.45;7.00;;;9.30;96.30;;;;;;4994407;28;20041;-66
2020/12/20 04:03:34;;;;;;;13.60;6.78;;;9.30;96.40;;;;;;4995520;28;20097;-65
2020/12/20 04:05:59;;;;;;;10.32;6.72;;;9.30;96.40;;;;;;4995431;28;20436;-67
2020/12/20 04:08:25;;;;;;;10.05;6.43;;;9.30;96.40;;;;;;4997011;28;20026;-66
2020/12/20 04:10:51;;;;;;;9.80;6.53;;;9.30;96.40;;;;;;4995207;28;20125;-66
2020/12/20 04:13:16;;;;;;;13.55;6.88;;;9.30;96.50;;;;;;4994976;28;20046;-66
2020/12/20 04:15:42;;;;;;;10.73;6.95;;;9.40;96.60;;;;;;4995034;28;20053;-68
2020/12/20 04:18:07;;;;;;;9.93;6.70;;;9.40;96.60;;;;;;4995135;28;20380;-66
2020/12/20 04:20:33;;;;;;;12.70;7.22;;;9.30;96.60;;;;;;4996734;28;20692;-66
2020/12/20 04:22:59;;;;;;;11.02;6.30;;;9.30;96.50;;;;;;4995034;28;20157;-66
2020/12/20 04:25:24;;;;;;;15.80;7.18;;;9.30;96.60;;;;;;4993986;28;20034;-67
2020/12/20 04:27:50;;;;;;;12.65;7.07;;;9.30;96.60;;;;;;4994938;28;20046;-66
2020/12/20 04:30:16;;;;;;;12.90;6.97;;;9.30;96.60;;;;;;4993798;28;20030;-67
2020/12/20 04:32:41;;;;;;;11.90;6.85;;;9.30;96.60;;;;;;4996312;28;20092;-65
2020/12/20 04:35:09;;;;;;;11.75;7.00;;;9.30;96.70;;;;;;4977680;28;20400;-67
2020/12/20 04:37:37;;;;;;;10.20;6.77;;;9.30;96.70;;;;;;4994768;28;20375;-66
2020/12/20 04:40:05;;;;;;;14.38;7.43;;;9.30;96.60;;;;;;4994998;28;20049;-67
2020/12/20 04:42:30;;;;;;;11.47;6.83;;;9.30;96.60;;;;;;4993902;28;20030;-67
2020/12/20 04:44:56;;;;;;;10.70;6.55;;;9.30;96.60;;;;;;4996225;28;20134;-65
2020/12/20 04:47:24;;;;;;;11.82;7.03;;;9.30;96.60;;;;;;4994659;28;20030;-65
2020/12/20 04:49:52;;;;;;;10.65;6.30;;;9.30;96.60;;;;;;4994339;28;20064;-66
2020/12/20 04:52:18;;;;;;;;;;;9.30;96.70;;;;;;4994977;28;20034;-69
2020/12/20 04:54:45;;;;;;;10.70;6.63;;;9.30;96.70;;;;;;4994532;28;20244;-67
2020/12/20 04:57:15;;;;;;;11.38;7.10;;;9.30;96.70;;;;;;4993566;28;20034;-65
2020/12/20 04:59:41;;;;;;;12.45;6.65;;;9.30;96.70;;;;;;4996191;28;20325;-65
2020/12/20 05:02:07;;;;;;;11.32;6.65;;;9.30;96.70;;;;;;4994436;28;20046;-66
2020/12/20 05:04:35;;;;;;;10.25;7.22;;;9.40;96.70;;;;;;4994311;28;20042;-66
2020/12/20 05:07:04;;;;;;;13.05;7.63;;;9.40;96.60;;;;;;4993386;28;20034;-66
2020/12/20 05:09:31;;;;;;;12.18;6.72;;;9.40;96.60;;;;;;4994362;28;20034;-67
2020/12/20 05:11:56;;;;;;;12.60;7.05;;;9.40;96.50;;;;;;4996013;28;20109;-65
2020/12/20 05:14:33;;;;;;;12.90;6.55;;;9.40;96.60;;;;;;4994208;28;20480;-67
2020/12/20 05:16:59;;;;;;;11.23;6.78;;;9.40;96.60;;;;;;4993048;28;20447;-66
2020/12/20 05:19:31;;;;;;;12.30;6.57;;;9.40;96.50;;;;;;4992708;28;20038;-66
2020/12/20 05:22:17;;;;;;;11.63;6.80;;;9.30;96.60;;;;;;4994146;28;20058;-67
2020/12/20 05:24:47;;;;;;;11.20;6.10;;;9.30;96.60;;;;;;4993569;28;20030;-67
2020/12/20 05:27:28;;;;;;;15.18;7.32;;;9.30;96.70;;;;;;4994169;28;20041;-67
2020/12/20 05:29:55;;;;;;;9.82;6.50;;;9.30;96.60;;;;;;4995402;28;20029;-68
2020/12/20 05:32:29;;;;;;;12.27;6.78;;;9.30;96.70;;;;;;4993718;28;20050;-66
2020/12/20 05:35:00;;;;;;;13.77;7.25;;;9.30;96.60;;;;;;4993586;28;20124;-67
2020/12/20 05:37:31;;;;;;;11.18;6.65;;;9.40;96.60;;;;;;4993555;28;20042;-67
2020/12/20 05:39:57;;;;;;;11.25;7.03;;;9.30;96.50;;;;;;4993718;28;20392;-68
2020/12/20 05:42:24;;;;;;;15.25;7.05;;;9.30;96.60;;;;;;4993599;28;20038;-68
2020/12/20 05:45:06;;;;;;;10.27;6.63;;;9.30;96.60;;;;;;4993909;28;20101;-66
2020/12/20 05:47:33;;;;;;;15.77;7.40;;;9.30;96.60;;;;;;4993776;28;20039;-68
2020/12/20 05:49:59;;;;;;;11.02;6.32;;;9.30;96.60;;;;;;4992324;28;20038;-67
2020/12/20 05:52:25;;;;;;;11.73;6.47;;;9.30;96.60;;;;;;4993334;28;20556;-67
2020/12/20 05:54:50;;;;;;;14.95;7.05;;;9.30;96.60;;;;;;4993009;28;20051;-67
2020/12/20 05:57:19;;;;;;;10.90;7.03;;;9.30;96.60;;;;;;4993365;28;20027;-66
2020/12/20 05:59:46;;;;;;;12.60;7.57;;;9.30;96.60;;;;;;4994512;28;20093;-67
2020/12/20 06:02:13;;;;;;;12.75;7.15;;;9.30;96.60;;;;;;4993461;28;20027;-68
2020/12/20 06:04:40;;;;;;;11.85;7.22;;;9.30;96.60;;;;;;4993222;28;20044;-67
2020/12/20 06:07:08;;;;;;;12.63;6.72;;;9.30;96.60;;;;;;4992215;28;20062;-68
2020/12/20 06:09:50;;;;;;;11.60;6.32;;;9.30;96.60;;;;;;4993080;28;20034;-66
2020/12/20 06:12:19;;;;;;;14.43;6.97;;;9.30;96.60;;;;;;4992995;28;20060;-67
2020/12/20 06:14:46;;;;;;;10.93;6.70;;;9.30;96.60;;;;;;4994488;28;20042;-68
2020/12/20 06:17:14;;;;;;;12.18;7.13;;;9.30;96.60;;;;;;4992793;28;20357;-66
2020/12/20 06:19:47;;;;;;;;;;;9.30;96.60;;;;;;4993566;28;20034;-67
2020/12/20 06:22:28;;;;;;;9.70;6.63;;;9.30;96.60;;;;;;4992952;28;19921;-68
2020/12/20 06:24:58;;;;;;;15.70;7.82;;;9.40;96.60;;;;;;4992666;28;20096;-66
2020/12/20 06:27:29;;;;;;;12.63;7.47;;;9.30;96.70;;;;;;4992712;28;20157;-66
2020/12/20 06:29:57;;;;;;;14.02;8.18;;;9.30;96.70;;;;;;4994227;28;20037;-66
2020/12/20 06:32:49;;;;;;;11.85;7.60;;;9.30;96.70;;;;;;4992751;28;20373;-67
2020/12/20 06:35:28;;;;;;;13.20;6.82;;;9.40;96.70;;;;;;4992578;28;20038;-67
2020/12/20 06:37:54;;;;;;;13.85;7.65;;;9.30;96.70;;;;;;4992733;28;20416;-67
2020/12/20 06:40:41;;;;;;;14.13;8.00;;;9.40;96.80;;;;;;4992893;28;20038;-68
2020/12/20 06:43:08;;;;;;;11.23;7.30;;;9.40;96.60;;;;;;4992637;28;20038;-67
2020/12/20 06:45:45;;;;;;;13.20;7.00;;;9.40;96.70;;;;;;4992603;28;20046;-67
2020/12/20 06:48:13;;;;;;;12.30;7.55;;;9.30;96.70;;;;;;4991427;28;20452;-68
2020/12/20 06:50:38;;;;;;;11.18;7.45;;;9.30;96.70;;;;;;4993911;28;20091;-66
2020/12/20 06:53:11;;;;;;;11.10;7.40;;;9.30;96.70;;;;;;4992383;28;20038;-66
2020/12/20 06:55:37;;;;;;;12.95;7.95;;;9.30;96.70;;;;;;4991292;28;20088;-67
2020/12/20 06:58:03;;;;;;;12.48;7.88;;;9.30;96.70;;;;;;4991021;28;20038;-67
2020/12/20 07:00:42;;;;;;;17.13;7.85;;;9.30;96.80;;;;;;4992335;28;20436;-67
2020/12/20 07:03:09;;;;;;;13.05;7.50;;;9.30;96.80;;;;;;4992309;28;20037;-66
2020/12/20 07:05:41;;;;;;;12.75;8.10;;;9.30;96.70;;;;;;4993743;28;20026;-67
2020/12/20 07:08:20;;;;;;;11.80;6.90;;;9.30;96.80;;;;;;4992295;28;20041;-67
2020/12/20 07:10:50;;;;;;;11.73;7.20;;;9.30;96.80;;;;;;4991454;28;20507;-67
2020/12/20 07:13:40;;;;;;;14.00;7.47;;;9.30;96.80;;;;;;4992251;28;20046;-66
2020/12/20 07:16:18;;;;;;;13.13;8.20;;;9.30;96.80;;;;;;4992177;28;20030;-67
2020/12/20 07:18:43;;;;;;;;;;;9.30;96.90;;;;;;4992948;28;20046;-68
2020/12/20 07:21:19;;;;;;;11.90;7.00;;;9.40;96.90;;;;;;4992314;28;19906;-67
2020/12/20 07:24:12;;;;;;;12.80;7.82;;;9.30;96.90;;;;;;4993482;28;20060;-67
2020/12/20 07:26:37;;;;;;;14.30;8.05;;;9.30;96.90;;;;;;4992139;28;20042;-67
2020/12/20 07:29:05;;;;;;;12.00;7.68;;;9.30;96.90;;;;;;4992112;28;20105;-65
2020/12/20 07:31:31;;;;;;;12.68;7.60;;;9.30;96.80;;;;;;4991757;28;20046;-66
2020/12/20 07:33:58;;;;;;;13.02;8.05;;;9.30;96.80;;;;;;4991702;28;20038;-67
2020/12/20 07:36:24;;;;;;;13.02;8.25;;;9.40;96.90;;;;;;4991794;28;20030;-67
2020/12/20 07:38:50;;;;;;;16.45;9.60;;;9.40;96.80;;;;;;4993465;28;20033;-67
2020/12/20 07:41:17;;;;;;;13.32;7.50;;;9.40;96.80;;;;;;4991950;28;20144;-68
2020/12/20 07:43:44;;;;;;;13.95;8.38;;;9.30;96.90;;;;;;4991962;28;20065;-66
2020/12/20 07:46:11;;;;;;;14.52;8.15;;;9.30;97.10;;;;;;4990804;28;20092;-68
2020/12/20 07:48:37;;;;;;;16.52;8.98;;;9.20;97.10;;;;;;4991746;28;20537;-68
2020/12/20 07:51:10;;;;;;;15.73;8.68;;;9.30;97.20;;;;;;4991019;28;20326;-67
2020/12/20 07:53:42;;;;;;;12.98;8.80;;;9.30;97.20;;;;;;4993422;28;20027;-67
2020/12/20 07:56:08;;;;;;;13.45;7.90;;;9.30;97.30;;;;;;4992002;28;20051;-68
2020/12/20 07:58:34;;;;;;;15.90;8.02;;;9.20;97.30;;;;;;4991836;28;20097;-67
2020/12/20 08:01:07;;;;;;;12.48;7.93;;;9.30;97.40;;;;;;4991925;28;20042;-68
2020/12/20 08:03:35;;;;;;;13.63;7.78;;;9.20;97.70;;;;;;4991934;28;20022;-67
2020/12/20 08:06:08;;;;;;;13.82;7.75;;;9.20;97.80;;;;;;4990373;28;20022;-68
2020/12/20 08:08:35;;;;;;;13.27;8.00;;;9.20;98.20;;;;;;4993221;28;20015;-69
2020/12/20 08:11:17;;;;;;;14.82;8.35;;;9.20;98.00;;;;;;4991643;28;20042;-67
2020/12/20 08:13:52;;;;;;;13.82;8.55;;;9.20;98.10;;;;;;4991720;28;20049;-66
2020/12/20 08:16:34;;;;;;;15.55;8.27;;;9.20;98.30;;;;;;4991596;28;20042;-71
2020/12/20 08:19:03;;;;;;;13.77;9.00;;;9.20;98.30;;;;;;4991596;28;20125;-68
2020/12/20 08:21:32;;;;;;;13.77;8.45;;;9.20;98.40;;;;;;4991907;28;20058;-68
2020/12/20 08:23:59;;;;;;;15.57;8.65;;;9.20;98.40;;;;;;4996591;28;20037;-67
2020/12/20 08:26:30;;;;;;;14.07;8.50;;;9.20;98.70;;;;;;4995495;28;20168;-66
2020/12/20 08:28:57;;;;;;;17.52;8.48;;;9.30;98.60;;;;;;4995267;28;20042;-66
2020/12/20 08:31:26;;;;;;;14.88;8.68;;;9.20;98.50;;;;;;4994587;28;20045;-71
2020/12/20 08:33:52;;;;;;;16.70;7.85;;;9.20;98.60;;;;;;4994095;28;20050;-67
2020/12/20 08:36:20;;;;;;;12.77;7.50;;;9.20;98.70;;;;;;4995177;28;20089;-68
2020/12/20 08:38:46;;;;;;;12.75;8.35;;;9.30;98.70;;;;;;4996655;28;20095;-69
2020/12/20 08:41:26;;;;;;;13.10;8.02;;;9.20;98.80;;;;;;4995219;28;20042;-67
2020/12/20 08:44:10;;;;;;;20.15;10.57;;;9.20;98.80;;;;;;4993888;28;20043;-67
2020/12/20 08:46:42;;;;;;;14.70;9.48;;;9.20;98.80;;;;;;4995088;28;20053;-68
2020/12/20 08:49:20;;;;;;;17.63;9.05;;;9.20;98.80;;;;;;4994900;28;20030;-67
2020/12/20 08:51:48;;;;;;;12.27;8.27;;;9.20;98.90;;;;;;4994883;28;20093;-66
2020/12/20 08:54:24;;;;;;;;;;;9.30;99.00;;;;;;4995070;28;20061;-66
2020/12/20 08:56:57;;;;;;;13.57;8.43;;;9.30;99.00;;;;;;4995236;28;20216;-68
2020/12/20 08:59:27;;;;;;;14.57;8.52;;;9.30;99.00;;;;;;4994543;28;20034;-69
2020/12/20 09:01:53;;;;;;;13.70;9.02;;;9.30;99.20;;;;;;4993430;28;20045;-67
2020/12/20 09:04:18;;;;;;;13.82;8.70;;;9.30;99.20;;;;;;4994512;28;20141;-67
2020/12/20 09:07:06;;;;;;;17.55;9.05;;;9.30;99.30;;;;;;4994545;28;20038;-68
2020/12/20 09:09:32;;;;;;;20.17;9.70;;;9.30;99.20;;;;;;4994300;28;20503;-66
2020/12/20 09:12:18;;;;;;;15.50;9.40;;;9.30;99.20;;;;;;4995836;28;20112;-67
2020/12/20 09:15:03;;;;;;;13.52;9.00;;;9.30;99.40;;;;;;4993493;28;20178;-65
2020/12/20 09:17:34;;;;;;;16.88;9.75;;;9.30;99.50;;;;;;4994546;28;20045;-67
2020/12/20 09:20:00;;;;;;;19.85;10.05;;;9.40;99.40;;;;;;4994199;28;20070;-66
2020/12/20 09:22:56;;;;;;;17.23;10.00;;;9.40;99.30;;;;;;4992679;28;20185;-67
2020/12/20 09:25:49;;;;;;;13.20;8.55;;;9.40;99.50;;;;;;4994398;28;20046;-67
2020/12/20 09:28:24;;;;;;;15.30;9.07;;;9.40;99.60;;;;;;4991776;28;20472;-66
2020/12/20 09:30:52;;;;;;;16.52;10.05;;;9.50;99.60;;;;;;4994075;28;20039;-69
2020/12/20 09:33:22;;;;;;;18.73;10.40;;;9.40;99.50;;;;;;5005606;28;20041;-67
2020/12/20 09:36:14;;;;;;;16.17;9.23;;;9.50;99.60;;;;;;5015242;28;20025;-67
2020/12/20 09:38:43;;;;;;;21.20;11.55;;;9.50;99.70;;;;;;5013929;28;20583;-68
2020/12/20 09:41:13;;;;;;;19.02;11.57;;;9.50;99.50;;;;;;5013656;28;20364;-73
2020/12/20 09:43:40;;;;;;;18.23;10.10;;;9.50;99.60;;;;;;5013443;28;20044;-67
2020/12/20 09:46:07;;;;;;;16.90;9.70;;;9.50;99.60;;;;;;5013455;28;20038;-67
2020/12/20 09:48:33;;;;;;;16.60;9.98;;;9.50;99.70;;;;;;5013259;28;20037;-69
2020/12/20 09:50:59;;;;;;;14.68;9.30;;;9.50;99.70;;;;;;5014749;28;20030;-69
2020/12/20 09:53:25;;;;;;;15.57;9.55;;;9.60;99.60;;;;;;5013459;28;20057;-69
2020/12/20 09:55:50;;;;;;;19.63;9.63;;;9.50;99.60;;;;;;5013076;28;20041;-68
2020/12/20 09:58:17;;;;;;;14.30;9.23;;;9.50;99.60;;;;;;5013186;28;20038;-68
2020/12/20 10:00:43;;;;;;;16.08;9.25;;;9.50;99.60;;;;;;5013204;28;20046;-69
2020/12/20 10:03:10;;;;;;;18.80;10.18;;;9.60;99.60;;;;;;5013025;28;20047;-68
2020/12/20 10:05:39;;;;;;;13.63;9.05;;;9.60;99.60;;;;;;5014757;28;20460;-66
2020/12/20 10:08:06;;;;;;;19.80;10.90;;;9.60;99.60;;;;;;5013022;28;20048;-68
2020/12/20 10:10:31;;;;;;;14.43;9.45;;;9.60;99.60;;;;;;5012971;28;20033;-66
2020/12/20 10:12:57;;;;;;;21.13;11.10;;;9.70;99.60;;;;;;5013106;28;20352;-66
2020/12/20 10:15:24;;;;;;;17.15;9.60;;;9.70;99.40;;;;;;5012656;28;20030;-67
2020/12/20 10:17:50;;;;;;;14.55;8.95;;;9.70;99.30;;;;;;5014371;28;20038;-67
2020/12/20 10:20:16;;;;;;;18.60;10.48;;;9.60;99.50;;;;;;5011943;28;20042;-65
2020/12/20 10:22:42;;;;;;;16.77;9.45;;;9.50;99.50;;;;;;5012909;28;20083;-66
2020/12/20 10:25:07;;;;;;;16.02;9.65;;;9.50;99.40;;;;;;5012658;28;20037;-65
2020/12/20 10:27:33;;;;;;;16.15;9.82;;;9.50;99.40;;;;;;5012797;28;20033;-69
2020/12/20 10:29:59;;;;;;;16.77;10.02;;;9.50;99.50;;;;;;5013316;28;20061;-63
2020/12/20 10:32:24;;;;;;;16.25;10.00;;;9.50;99.50;;;;;;5007251;28;20121;-63
2020/12/20 10:34:50;;;;;;;18.13;9.32;;;9.60;99.40;;;;;;5012629;28;20379;-64
2020/12/20 10:37:16;;;;;;;17.90;10.20;;;9.60;99.40;;;;;;5012582;28;20053;-66
2020/12/20 10:39:42;;;;;;;18.83;9.52;;;9.50;99.50;;;;;;5011402;28;20539;-66
2020/12/20 10:42:12;;;;;;;17.13;9.68;;;9.50;99.40;;;;;;5012707;28;20041;-66
2020/12/20 10:44:37;;;;;;;20.20;10.43;;;9.50;99.40;;;;;;5013702;28;20185;-67
2020/12/20 10:47:04;;;;;;;19.38;9.98;;;9.50;99.50;;;;;;5012348;28;20460;-65
2020/12/20 10:49:30;;;;;;;18.90;10.73;;;9.60;99.50;;;;;;5012269;28;20446;-66
2020/12/20 10:51:55;;;;;;;16.23;9.32;;;9.60;99.50;;;;;;5012444;28;20085;-66
2020/12/20 10:54:23;;;;;;;18.65;10.15;;;9.60;99.40;;;;;;5011896;28;20392;-67
2020/12/20 10:56:49;;;;;;;18.35;11.60;;;9.60;99.50;;;;;;5013912;28;20390;-66
2020/12/20 10:59:16;;;;;;;14.57;9.35;;;9.60;99.50;;;;;;5011485;28;20472;-66
2020/12/20 11:01:42;;;;;;;18.92;11.50;;;9.70;99.60;;;;;;5012153;28;20042;-67
2020/12/20 11:04:07;;;;;;;16.98;10.00;;;9.70;99.60;;;;;;5012351;28;20361;-65
2020/12/20 11:06:33;;;;;;;19.27;10.10;;;9.60;99.70;;;;;;5012384;28;20066;-68
2020/12/20 11:08:59;;;;;;;16.52;10.23;;;9.70;99.70;;;;;;5013497;28;20041;-70
2020/12/20 11:11:30;;;;;;;17.13;9.55;;;9.70;99.70;;;;;;5012460;28;20096;-71
2020/12/20 11:13:56;;;;;;;16.38;9.73;;;9.70;99.60;;;;;;5011575;28;20149;-70
2020/12/20 11:16:21;;;;;;;20.05;10.15;;;9.80;99.60;;;;;;5010832;28;20471;-69
2020/12/20 11:18:48;;;;;;;20.20;10.13;;;9.80;99.50;;;;;;5012032;28;20129;-68
2020/12/20 11:21:14;;;;;;;16.33;9.70;;;9.80;99.50;;;;;;5012273;28;20145;-67
2020/12/20 11:23:41;;;;;;;19.90;10.88;;;9.80;99.50;;;;;;5012561;28;20030;-66
2020/12/20 11:26:17;;;;;;;15.07;9.32;;;9.80;99.40;;;;;;5012156;28;20030;-68
2020/12/20 11:28:44;;;;;;;16.33;10.20;;;9.80;99.30;;;;;;5011937;28;20029;-66
2020/12/20 11:31:11;;;;;;;14.87;9.37;;;9.90;99.30;;;;;;5011957;28;20050;-66
2020/12/20 11:33:37;;;;;;;16.35;10.50;;;9.90;99.30;;;;;;5011844;28;20355;-68
2020/12/20 11:36:04;;;;;;;14.77;9.35;;;10.00;98.70;;;;;;5011944;28;20116;-66
2020/12/20 11:38:30;;;;;;;15.93;9.05;;;10.00;98.70;;;;;;5013574;28;20040;-66
2020/12/20 11:40:56;;;;;;;15.75;10.05;;;10.00;98.60;;;;;;5011899;28;20044;-64
2020/12/20 11:43:22;;;;;;;15.77;8.98;;;10.10;98.50;;;;;;5011495;28;20453;-67
2020/12/20 11:45:48;;;;;;;17.10;9.55;;;10.00;98.40;;;;;;5011751;28;20542;-65
2020/12/20 11:48:15;;;;;;;16.63;9.70;;;10.10;98.50;;;;;;5010644;28;20034;-64
2020/12/20 11:50:41;;;;;;;18.15;9.88;;;10.10;98.50;;;;;;5013311;28;20022;-64
2020/12/20 11:53:07;;;;;;;17.73;10.13;;;10.20;98.50;;;;;;5011721;28;20096;-64
2020/12/20 11:55:32;;;;;;;18.13;10.00;;;10.20;98.80;;;;;;5011737;28;20042;-65
2020/12/20 11:57:58;;;;;;;16.25;9.57;;;10.20;98.40;;;;;;5014110;28;20559;-64
2020/12/20 12:00:25;;;;;;;16.33;8.60;;;10.20;98.30;;;;;;5015174;28;20034;-65
2020/12/20 12:02:52;;;;;;;15.80;9.45;;;10.30;98.20;;;;;;5016976;28;20050;-66
2020/12/20 12:05:17;;;;;;;15.50;9.60;;;10.20;98.20;;;;;;5015269;28;20045;-65
2020/12/20 12:07:43;;;;;;;16.27;8.70;;;10.30;98.20;;;;;;5015361;28;20341;-65
2020/12/20 12:10:08;;;;;;;16.35;10.77;;;10.20;98.30;;;;;;5015394;28;20414;-64
2020/12/20 12:12:34;;;;;;;16.85;10.43;;;10.10;98.30;;;;;;5015389;28;20127;-65
2020/12/20 12:15:00;;;;;;;18.23;10.02;;;9.90;98.90;;;;;;5015052;28;20032;-65
2020/12/20 12:17:25;;;;;;;22.17;10.25;;;10.00;98.50;;;;;;5016572;28;20455;-65
2020/12/20 12:19:52;;;;;;;14.95;8.82;;;9.90;99.00;;;;;;5015274;28;20145;-67
2020/12/20 12:22:18;;;;;;;18.63;10.40;;;9.80;99.10;;;;;;5015320;28;20057;-65
2020/12/20 12:24:43;;;;;;;20.85;9.40;;;9.90;99.20;;;;;;5014755;28;20045;-66
2020/12/20 12:27:09;;;;;;;14.20;9.10;;;9.90;99.10;;;;;;5015119;28;20025;-69
2020/12/20 12:29:35;;;;;;;17.80;10.57;;;9.90;99.10;;;;;;5016300;28;20045;-67
2020/12/20 12:32:00;;;;;;;14.07;9.35;;;10.00;98.60;;;;;;5013839;28;20030;-63
2020/12/20 12:34:26;;;;;;;15.07;9.50;;;10.00;98.60;;;;;;5015088;28;20045;-63
2020/12/20 12:36:52;;;;;;;18.40;9.52;;;10.10;98.70;;;;;;5015113;28;20030;-63
2020/12/20 12:39:17;;;;;;;17.10;9.93;;;10.10;98.70;;;;;;5015080;28;20033;-64
2020/12/20 12:41:43;;;;;;;14.70;9.10;;;10.20;98.60;;;;;;5015972;28;20033;-64
2020/12/20 12:44:09;;;;;;;14.93;9.20;;;10.20;98.60;;;;;;5014241;28;20033;-66
2020/12/20 12:46:34;;;;;;;15.27;9.93;;;10.20;98.60;;;;;;5014673;28;20361;-65
2020/12/20 12:49:00;;;;;;;15.38;8.98;;;10.30;98.60;;;;;;5014412;28;20030;-68
2020/12/20 12:51:26;;;;;;;18.48;10.27;;;10.30;98.60;;;;;;5014639;28;20041;-66
2020/12/20 12:53:52;;;;;;;16.90;9.93;;;10.40;98.40;;;;;;5015587;28;20048;-68